createdAt,value
2022-11-29T00:00:28.875Z,93.88
2022-11-29T00:05:30.468Z,93.76
2022-11-29T00:10:32.048Z,93.79
2022-11-29T00:15:37.379Z,93.56
2022-11-29T00:20:40.135Z,93.75
2022-11-29T00:25:41.703Z,93.80
2022-11-29T00:30:43.364Z,93.93
2022-11-29T00:35:44.985Z,93.80
2022-11-29T00:40:51.402Z,94.18
2022-11-29T00:45:52.995Z,93.39
2022-11-29T00:50:54.617Z,93.31
2022-11-29T00:55:56.522Z,93.38
2022-11-29T01:00:58.696Z,92.90
2022-11-29T01:06:12.410Z,92.40
2022-11-29T01:11:20.556Z,93.01
2022-11-29T01:16:22.647Z,93.06
2022-11-29T01:21:24.810Z,93.31
2022-11-29T01:26:28.735Z,93.54
2022-11-29T01:31:35.979Z,93.97
2022-11-29T01:36:37.629Z,94.06
2022-11-29T01:41:39.550Z,94.51
2022-11-29T01:46:43.985Z,94.59
2022-11-29T01:51:51.591Z,94.88
2022-11-29T01:56:53.411Z,94.95
2022-11-29T02:02:05.268Z,94.90
2022-11-29T02:07:07.104Z,94.87
2022-11-29T02:12:36.485Z,95.00
2022-11-29T02:18:04.179Z,95.28
2022-11-29T02:23:47.236Z,95.59
2022-11-29T02:29:19.516Z,95.77
2022-11-29T02:34:51.584Z,96.24
2022-11-29T02:40:20.771Z,96.68
2022-11-29T02:45:22.208Z,96.97
2022-11-29T02:50:57.852Z,96.42
2022-11-29T02:56:24.640Z,96.90
2022-11-29T03:02:05.523Z,96.77
2022-11-29T03:07:19.106Z,96.46
2022-11-29T03:12:43.390Z,97.17
2022-11-29T03:18:23.720Z,96.68
2022-11-29T03:23:33.803Z,96.70
2022-11-29T03:28:41.513Z,96.93
2022-11-29T03:34:11.007Z,97.21
2022-11-29T03:39:18.767Z,97.14
2022-11-29T03:44:27.146Z,97.04
2022-11-29T03:49:46.100Z,97.38
2022-11-29T03:55:06.195Z,97.78
2022-11-29T04:00:10.336Z,97.74
2022-11-29T04:05:53.265Z,97.49
2022-11-29T04:10:58.236Z,97.82
2022-11-29T04:16:18.158Z,97.51
2022-11-29T04:21:38.343Z,97.54
2022-11-29T04:27:16.905Z,97.53
2022-11-29T04:32:54.826Z,97.06
2022-11-29T04:38:23.211Z,97.46
2022-11-29T04:44:02.435Z,97.42
2022-11-29T04:49:09.728Z,97.40
2022-11-29T04:54:29.638Z,97.13
2022-11-29T04:59:34.103Z,97.36
2022-11-29T05:04:50.656Z,97.20
2022-11-29T05:10:01.284Z,97.32
2022-11-29T05:15:39.378Z,96.82
2022-11-29T05:21:13.154Z,96.67
2022-11-29T05:26:22.960Z,97.13
2022-11-29T05:31:39.823Z,96.74
2022-11-29T05:36:44.467Z,96.58
2022-11-29T05:42:08.429Z,96.63
2022-11-29T05:47:11.277Z,96.34
2022-11-29T05:52:19.112Z,96.73
2022-11-29T05:57:37.152Z,96.93
2022-11-29T06:02:47.713Z,96.80
2022-11-29T06:08:19.550Z,96.85
2022-11-29T06:13:47.516Z,96.56
2022-11-29T06:19:01.058Z,96.78
2022-11-29T06:24:26.298Z,97.00
2022-11-29T06:29:54.912Z,96.48
2022-11-29T06:35:03.111Z,96.53
2022-11-29T06:40:06.510Z,96.63
2022-11-29T06:45:12.228Z,96.66
2022-11-29T06:50:19.911Z,96.56
2022-11-29T06:56:00.602Z,96.37
2022-11-29T07:01:31.966Z,96.42
2022-11-29T07:06:35.171Z,96.02
2022-11-29T07:11:37.500Z,95.75
2022-11-29T07:17:04.261Z,95.83
2022-11-29T07:22:37.996Z,95.99
2022-11-29T07:27:52.289Z,95.86
2022-11-29T07:33:17.314Z,95.86
2022-11-29T07:38:49.542Z,95.57
2022-11-29T07:44:00.711Z,95.60
2022-11-29T07:49:02.477Z,95.25
2022-11-29T07:54:05.330Z,95.32
2022-11-29T07:59:11.428Z,94.52
2022-11-29T08:04:13.941Z,94.39
2022-11-29T08:09:15.550Z,94.18
2022-11-29T08:14:17.151Z,94.06
2022-11-29T08:19:18.726Z,94.23
2022-11-29T08:24:20.373Z,93.87
2022-11-29T08:29:21.986Z,93.68
2022-11-29T08:34:24.759Z,93.62
2022-11-29T08:39:26.349Z,93.26
2022-11-29T08:44:28.198Z,92.56
2022-11-29T08:49:29.872Z,93.20
2022-11-29T08:54:31.845Z,91.65
2022-11-29T08:59:33.704Z,92.63
2022-11-29T09:04:35.306Z,92.30
2022-11-29T09:09:36.902Z,91.94
2022-11-29T09:14:38.542Z,91.41
2022-11-29T09:19:40.344Z,90.59
2022-11-29T09:24:42.615Z,91.21
2022-11-29T09:29:44.484Z,90.39
2022-11-29T09:34:46.529Z,91.01
2022-11-29T09:39:48.581Z,89.89
2022-11-29T09:45:21.204Z,90.40
2022-11-29T09:50:36.430Z,90.79
2022-11-29T09:55:53.165Z,90.71
2022-11-29T10:01:03.188Z,90.72
2022-11-29T10:06:16.283Z,90.42
2022-11-29T10:11:23.600Z,89.98
2022-11-29T10:16:44.632Z,90.17
2022-11-29T10:22:15.945Z,89.80
2022-11-29T10:27:23.780Z,89.88
2022-11-29T10:32:30.802Z,88.94
2022-11-29T10:37:32.859Z,89.10
2022-11-29T10:42:49.420Z,89.10
2022-11-29T10:47:54.065Z,88.58
2022-11-29T10:53:03.663Z,87.77
2022-11-29T10:58:16.049Z,87.36
2022-11-29T11:03:27.519Z,87.37
2022-11-29T11:08:30.643Z,87.70
2022-11-29T11:13:32.881Z,87.48
2022-11-29T11:18:35.829Z,86.84
2022-11-29T11:23:45.426Z,87.27
2022-11-29T11:28:46.973Z,87.62
2022-11-29T11:33:48.697Z,87.69
2022-11-29T11:38:56.259Z,87.42
2022-11-29T11:44:00.196Z,87.02
2022-11-29T11:49:01.834Z,87.60
2022-11-29T11:54:03.624Z,87.54
2022-11-29T11:59:05.290Z,87.56
2022-11-29T12:04:25.529Z,87.80
2022-11-29T12:09:39.550Z,87.52
2022-11-29T12:15:02.353Z,87.69
2022-11-29T12:20:17.692Z,87.89
2022-11-29T12:25:27.056Z,87.41
2022-11-29T12:30:28.777Z,87.40
2022-11-29T12:35:36.469Z,87.31
2022-11-29T12:40:52.369Z,86.94
2022-11-29T12:45:59.003Z,87.17
2022-11-29T12:51:18.409Z,87.00
2022-11-29T12:56:37.046Z,86.71
2022-11-29T13:02:00.314Z,86.33
2022-11-29T13:07:24.474Z,86.72
2022-11-29T13:12:47.968Z,86.93
2022-11-29T13:18:21.461Z,87.63
2022-11-29T13:24:00.699Z,87.45
2022-11-29T13:29:03.064Z,88.63
2022-11-29T13:34:10.698Z,89.42
2022-11-29T13:39:32.288Z,89.62
2022-11-29T13:44:45.872Z,89.87
2022-11-29T13:50:04.360Z,90.47
2022-11-29T13:55:11.944Z,90.46
2022-11-29T14:00:36.172Z,90.92
2022-11-29T14:05:39.455Z,90.92
2022-11-29T14:10:48.146Z,90.68
2022-11-29T14:15:54.757Z,90.78
2022-11-29T14:20:58.184Z,91.32
2022-11-29T14:26:00.775Z,91.14
2022-11-29T14:31:04.010Z,91.63
2022-11-29T14:36:14.896Z,91.96
2022-11-29T14:41:58.061Z,92.81
2022-11-29T14:47:13.740Z,92.97
2022-11-29T14:52:15.340Z,93.11
2022-11-29T14:57:47.873Z,93.24
2022-11-29T15:03:06.290Z,93.12
2022-11-29T15:08:29.368Z,93.12
2022-11-29T15:13:36.502Z,93.25
2022-11-29T15:18:53.484Z,93.50
2022-11-29T15:24:03.088Z,93.39
2022-11-29T15:29:17.027Z,93.76
2022-11-29T15:34:31.094Z,93.54
2022-11-29T15:39:35.266Z,93.07
2022-11-29T15:44:37.261Z,93.29
2022-11-29T15:49:38.845Z,93.35
2022-11-29T15:54:44.406Z,93.59
2022-11-29T15:59:53.096Z,93.69
2022-11-29T16:05:20.185Z,93.65
2022-11-29T16:10:46.156Z,93.53
2022-11-29T16:15:48.088Z,93.52
2022-11-29T16:21:04.353Z,93.41
2022-11-29T16:26:23.077Z,93.47
2022-11-29T16:31:36.038Z,93.60
2022-11-29T16:36:37.827Z,93.74
2022-11-29T16:41:39.561Z,93.80
2022-11-29T16:46:41.517Z,93.76
2022-11-29T16:51:48.128Z,93.79
2022-11-29T16:56:51.909Z,93.72
2022-11-29T17:01:54.429Z,93.82
2022-11-29T17:06:56.750Z,93.89
2022-11-29T17:12:01.660Z,94.11
2022-11-29T17:17:03.593Z,94.20
2022-11-29T17:22:05.460Z,94.31
2022-11-29T17:27:07.164Z,94.24
2022-11-29T17:32:08.861Z,94.29
2022-11-29T17:37:10.580Z,94.29
2022-11-29T17:42:12.365Z,94.73
2022-11-29T17:47:14.281Z,94.98
2022-11-29T17:52:15.920Z,94.97
2022-11-29T17:57:18.347Z,95.14
2022-11-29T18:02:19.987Z,94.64
2022-11-29T18:07:21.774Z,94.75
2022-11-29T18:12:23.673Z,94.80
2022-11-29T18:17:25.423Z,94.64
2022-11-29T18:22:27.080Z,94.49
2022-11-29T18:27:28.713Z,94.30
2022-11-29T18:32:30.624Z,94.23
2022-11-29T18:38:06.485Z,94.08
2022-11-29T18:42:53.839Z,94.15
2022-11-29T18:47:55.477Z,94.01
2022-11-29T18:52:58.577Z,93.84
2022-11-29T18:58:00.318Z,93.73
2022-11-29T19:03:01.955Z,93.59
2022-11-29T19:08:03.724Z,93.89
2022-11-29T19:13:05.384Z,94.22
2022-11-29T19:18:06.968Z,93.92
2022-11-29T19:23:08.556Z,94.11
2022-11-29T19:28:14.110Z,94.22
2022-11-29T19:33:16.153Z,94.59
2022-11-29T19:38:18.090Z,94.52
2022-11-29T19:43:19.959Z,94.77
2022-11-29T19:48:22.370Z,95.01
2022-11-29T19:53:24.020Z,95.23
2022-11-29T19:58:25.592Z,95.74
2022-11-29T20:03:30.103Z,95.81
2022-11-29T20:08:31.863Z,96.04
2022-11-29T20:13:33.496Z,95.91
2022-11-29T20:18:36.832Z,95.90
2022-11-29T20:23:39.752Z,96.16
2022-11-29T20:28:41.828Z,96.00
2022-11-29T20:33:45.818Z,96.16
2022-11-29T20:39:18.570Z,96.10
2022-11-29T20:44:30.644Z,96.03
2022-11-29T20:49:32.428Z,96.23
2022-11-29T20:54:34.243Z,96.18
2022-11-29T20:59:35.840Z,96.30
2022-11-29T21:04:37.662Z,96.45
2022-11-29T21:09:39.271Z,96.30
2022-11-29T21:14:41.332Z,96.76
2022-11-29T21:19:43.360Z,96.75
2022-11-29T21:25:05.212Z,96.53
2022-11-29T21:30:16.240Z,97.01
2022-11-29T21:35:18.153Z,97.57
2022-11-29T21:40:19.887Z,97.85
2022-11-29T21:45:21.444Z,98.29
2022-11-29T21:50:22.990Z,97.67
2022-11-29T21:55:31.552Z,97.55
2022-11-29T22:00:37.441Z,97.62
2022-11-29T22:05:39.358Z,97.51
2022-11-29T22:10:41.198Z,98.20
2022-11-29T22:15:42.807Z,98.31
2022-11-29T22:20:47.140Z,98.00
2022-11-29T22:25:48.724Z,98.09
2022-11-29T22:30:50.315Z,97.88
2022-11-29T22:35:52.104Z,97.86
2022-11-29T22:40:53.711Z,98.52
2022-11-29T22:45:55.534Z,98.44
2022-11-29T22:51:06.229Z,98.71
2022-11-29T22:56:10.304Z,98.28
2022-11-29T23:01:14.762Z,98.11
2022-11-29T23:06:18.720Z,98.21
2022-11-29T23:11:23.380Z,98.18
2022-11-29T23:16:27.885Z,98.34
2022-11-29T23:21:35.365Z,99.17
2022-11-29T23:26:40.229Z,99.64
2022-11-29T23:31:42.197Z,99.63
2022-11-29T23:36:48.259Z,99.82
2022-11-29T23:41:53.084Z,99.94
2022-11-29T23:46:54.656Z,100.00
2022-11-29T23:51:56.240Z,99.41
2022-11-29T23:56:58.917Z,99.43
